Weston, Texas
Current Conditions -  °F | °C
As of 3:53 PM on Saturday 25 Oct 2014 (Local Time) from KTKI Reporting Station
Clear Clear  
Wind Chill: 86°   Ceiling: Unl
Heat Index: 86°   Visibility: 10mi
Dew Point: 60°   Wind: 7mph
Humidity: 41%   Direction: NA
Pressure: 30.06"   Gusts: NA
Location:  33.35°N, 96.67°W
Report Text: KTKI 252053Z VRB06KT 10SM CLR 30/16 A3006 RMK AO2 SLP178 T03000156 56018
Loading
Personal Weather Stations






























Interactive Weather Map
Tropical Storm Tracking
New forecast layout! Learn more

10-Day Weather Forecast

Advertisements
Track Severe Weather on mobile